Time;durP1;ratioP1;P1;durP2;ratioP2;P2;SDS_P1;SDS_P2;PMS_P1;PMS_P2;Temp;Humidity;BMP_temperature;BMP_pressure;BME280_temperature;BME280_humidity;BME280_pressure;Samples;Min_cycle;Max_cycle;Signal;HPM_P1;HPM_P2
2021/03/29 00:00:29;;;;;;;2.53;1.40;;;13.60;7.30;;;;;;5065740;28;20485;-78
2021/03/29 00:02:58;;;;;;;2.40;1.57;;;13.50;18.70;;;;;;5062076;28;20478;-79
2021/03/29 00:05:28;;;;;;;1.70;1.30;;;13.40;6.70;;;;;;5061473;28;21019;-78
2021/03/29 00:08:01;;;;;;;2.57;1.60;;;13.20;4.70;;;;;;5058715;28;21121;-78
2021/03/29 00:10:30;;;;;;;4.67;1.20;;;13.30;5.20;;;;;;5058575;28;20476;-78
2021/03/29 00:12:58;;;;;;;3.13;1.40;;;13.40;5.70;;;;;;5054459;28;21033;-79
2021/03/29 00:15:29;;;;;;;4.63;1.43;;;13.40;5.90;;;;;;5065716;28;20450;-79
2021/03/29 00:17:57;;;;;;;2.33;1.33;;;13.50;5.60;;;;;;5054391;28;20458;-78
2021/03/29 00:20:27;;;;;;;2.80;1.43;;;13.50;5.60;;;;;;5060420;28;20478;-78
2021/03/29 00:22:58;;;;;;;4.30;1.20;;;13.50;6.30;;;;;;5059491;28;20504;-79
2021/03/29 00:25:27;;;;;;;2.17;1.53;;;13.40;15.40;;;;;;5064436;28;20488;-78
2021/03/29 00:27:55;;;;;;;2.17;1.30;;;13.40;6.30;;;;;;5056981;28;20455;-78
2021/03/29 00:30:25;;;;;;;2.63;1.80;;;13.40;5.50;;;;;;5063330;28;20470;-79
2021/03/29 00:32:53;;;;;;;1.73;1.43;;;13.50;5.50;;;;;;5054728;28;21234;-78
2021/03/29 00:35:23;;;;;;;1.37;1.27;;;13.50;6.50;;;;;;5052423;28;20509;-78
2021/03/29 00:37:54;;;;;;;2.23;1.40;;;13.50;5.90;;;;;;5053595;28;20452;-79
2021/03/29 00:40:23;;;;;;;2.90;1.13;;;13.60;6.00;;;;;;5058905;28;20463;-79
2021/03/29 00:42:57;;;;;;;3.80;1.63;;;13.60;6.50;;;;;;5062672;28;20478;-78
2021/03/29 00:45:26;;;;;;;2.43;1.43;;;13.60;6.00;;;;;;5057358;28;20489;-79
2021/03/29 00:47:55;;;;;;;2.20;1.20;;;13.60;6.10;;;;;;5059946;28;20474;-78
2021/03/29 00:50:32;;;;;;;3.13;1.30;;;13.70;6.00;;;;;;5052066;28;20480;-78
2021/03/29 00:53:00;;;;;;;2.57;1.70;;;13.60;6.20;;;;;;5055146;28;20443;-77
2021/03/29 00:55:29;;;;;;;4.73;1.63;;;13.60;6.70;;;;;;5057639;28;20473;-78
2021/03/29 00:57:57;;;;;;;2.30;1.30;;;13.50;6.60;;;;;;5062687;28;20447;-79
2021/03/29 01:00:32;;;;;;;2.90;1.20;;;13.50;6.80;;;;;;5061984;28;20475;-79
2021/03/29 01:02:59;;;;;;;3.33;1.40;;;13.40;7.20;;;;;;5051713;28;20457;-79
2021/03/29 01:05:27;;;;;;;1.67;1.10;;;13.30;7.00;;;;;;5056353;28;20482;-79
2021/03/29 01:07:56;;;;;;;2.53;1.60;;;13.20;6.80;;;;;;5063431;28;20455;-79
2021/03/29 01:10:23;;;;;;;2.07;1.30;;;13.20;5.90;;;;;;5063194;28;20483;-79
2021/03/29 01:12:53;;;;;;;1.93;1.40;;;13.10;5.50;;;;;;5062053;28;20517;-79
2021/03/29 01:15:22;;;;;;;4.10;1.30;;;13.10;5.70;;;;;;5053709;28;20457;-79
2021/03/29 01:17:51;;;;;;;5.20;1.67;;;13.00;5.90;;;;;;5057338;28;20486;-78
2021/03/29 01:20:28;;;;;;;2.87;1.33;;;12.90;3.60;;;;;;5059678;28;20471;-79
2021/03/29 01:22:58;;;;;;;1.47;1.37;;;13.00;4.20;;;;;;5057051;28;20477;-79
2021/03/29 01:25:28;;;;;;;1.67;1.40;;;12.90;4.00;;;;;;5058947;28;20529;-79
2021/03/29 01:28:00;;;;;;;1.60;1.40;;;13.00;4.50;;;;;;5063242;28;20455;-78
2021/03/29 01:30:31;;;;;;;1.90;1.30;;;12.90;4.20;;;;;;5060186;28;20470;-78
2021/03/29 01:33:00;;;;;;;3.90;1.50;;;12.80;4.30;;;;;;5067478;28;20954;-78
2021/03/29 01:35:30;;;;;;;2.10;1.57;;;12.90;4.10;;;;;;5065477;28;20461;-79
2021/03/29 01:37:59;;;;;;;2.53;1.40;;;12.90;3.80;;;;;;5062222;28;20443;-79
2021/03/29 01:40:26;;;;;;;2.90;1.53;;;12.80;3.40;;;;;;5062889;28;20455;-79
2021/03/29 01:42:55;;;;;;;4.57;1.27;;;12.70;3.10;;;;;;5062147;28;20471;-78
2021/03/29 01:45:24;;;;;;;1.43;1.33;;;12.60;2.10;;;;;;5057429;28;20504;-79
2021/03/29 01:47:52;;;;;;;1.50;1.40;;;12.60;2.80;;;;;;5055432;28;20456;-79
2021/03/29 01:50:26;;;;;;;2.60;1.37;;;12.60;3.20;;;;;;5064395;28;20475;-80
2021/03/29 01:52:54;;;;;;;1.77;1.23;;;12.50;3.00;;;;;;5059147;28;21320;-78
2021/03/29 01:55:21;;;;;;;2.60;1.60;;;12.50;3.10;;;;;;5054395;28;20639;-78
2021/03/29 01:57:48;;;;;;;2.70;1.20;;;12.50;2.90;;;;;;5063822;28;20458;-76
2021/03/29 02:00:20;;;;;;;1.40;1.30;;;12.40;1.90;;;;;;5055517;28;20475;-79
2021/03/29 02:02:48;;;;;;;1.70;1.33;;;12.40;1.20;;;;;;5070758;28;20509;-77
2021/03/29 02:05:17;;;;;;;2.07;1.60;;;12.30;2.60;;;;;;5056426;28;20471;-77
2021/03/29 02:07:46;;;;;;;1.37;1.27;;;12.30;1.90;;;;;;5059732;28;20454;-77
2021/03/29 02:10:17;;;;;;;1.87;1.30;;;12.30;1.10;;;;;;5059613;28;20479;-77
2021/03/29 02:12:45;;;;;;;1.30;1.20;;;12.20;1.50;;;;;;5064235;28;20439;-77
2021/03/29 02:15:15;;;;;;;1.70;1.60;;;12.20;1.00;;;;;;5061490;28;20459;-79
2021/03/29 02:17:44;;;;;;;1.30;1.20;;;12.20;1.00;;;;;;5064386;28;20467;-78
2021/03/29 02:20:13;;;;;;;3.03;1.70;;;12.10;1.00;;;;;;5060382;28;20482;-75
2021/03/29 02:22:42;;;;;;;2.07;1.53;;;12.10;1.00;;;;;;5057475;28;20445;-78
2021/03/29 02:25:11;;;;;;;1.43;1.07;;;12.10;1.00;;;;;;5059947;28;20467;-78
2021/03/29 02:27:39;;;;;;;2.20;1.30;;;12.10;1.00;;;;;;5063455;28;20489;-77
2021/03/29 02:30:10;;;;;;;1.90;1.70;;;12.10;1.00;;;;;;5061343;28;20479;-78
2021/03/29 02:32:40;;;;;;;3.67;1.63;;;12.00;1.00;;;;;;5059636;28;20465;-77
2021/03/29 02:35:09;;;;;;;1.97;1.80;;;12.10;1.40;;;;;;5058446;28;20453;-77
2021/03/29 02:37:39;;;;;;;1.50;1.40;;;12.10;1.80;;;;;;5058308;28;20454;-77
2021/03/29 02:40:08;;;;;;;1.67;1.40;;;12.00;2.30;;;;;;5060199;28;20515;-78
2021/03/29 02:42:36;;;;;;;2.27;1.50;;;12.00;2.30;;;;;;5065444;28;20504;-77
2021/03/29 02:45:05;;;;;;;2.07;1.77;;;12.00;2.60;;;;;;5053798;28;20471;-78
2021/03/29 02:47:33;;;;;;;2.43;1.50;;;12.00;1.70;;;;;;5062451;28;21037;-78
2021/03/29 02:50:01;;;;;;;1.77;1.40;;;12.00;2.40;;;;;;5064466;28;20466;-77
2021/03/29 02:52:29;;;;;;;1.57;1.30;;;12.00;2.70;;;;;;5062712;28;20461;-79
2021/03/29 02:54:58;;;;;;;2.60;1.87;;;11.90;2.20;;;;;;5062671;28;20451;-79
2021/03/29 02:57:26;;;;;;;3.30;1.80;;;11.90;3.10;;;;;;5066074;28;20451;-79
2021/03/29 02:59:54;;;;;;;1.90;1.80;;;11.80;13.40;;;;;;5055422;28;20487;-77
2021/03/29 03:02:22;;;;;;;1.70;1.47;;;11.70;1.60;;;;;;5055329;28;20448;-78
2021/03/29 03:04:50;;;;;;;1.50;1.40;;;11.80;2.90;;;;;;5058907;28;20485;-79
2021/03/29 03:07:17;;;;;;;4.10;1.90;;;11.80;2.00;;;;;;5062631;28;20451;-79
2021/03/29 03:09:46;;;;;;;1.67;1.37;;;11.80;2.30;;;;;;5059066;28;20537;-78
2021/03/29 03:12:14;;;;;;;2.27;1.20;;;11.80;2.20;;;;;;5062113;28;20455;-78
2021/03/29 03:14:44;;;;;;;4.60;1.47;;;11.70;1.60;;;;;;5059795;28;20505;-79
2021/03/29 03:17:11;;;;;;;3.30;1.50;;;11.70;2.40;;;;;;5065674;28;20540;-79
2021/03/29 03:19:39;;;;;;;2.23;1.60;;;11.70;1.70;;;;;;5062122;28;20444;-78
2021/03/29 03:22:06;;;;;;;3.10;1.63;;;11.60;1.00;;;;;;5056384;28;20442;-79
2021/03/29 03:24:34;;;;;;;1.80;1.37;;;11.60;1.70;;;;;;5055989;28;20616;-79
2021/03/29 03:27:05;;;;;;;1.90;1.70;;;11.60;1.00;;;;;;5065402;28;20461;-79
2021/03/29 03:29:36;;;;;;;2.33;1.33;;;11.50;1.00;;;;;;5064188;28;20462;-77
2021/03/29 03:32:04;;;;;;;6.93;1.77;;;11.50;1.00;;;;;;5062404;28;20468;-78
2021/03/29 03:34:31;;;;;;;2.67;1.93;;;11.30;1.00;;;;;;5066398;28;20452;-79
2021/03/29 03:36:59;;;;;;;3.50;1.97;;;11.40;2.10;;;;;;5062994;28;20460;-79
2021/03/29 03:39:27;;;;;;;2.00;1.67;;;11.40;1.50;;;;;;5060477;28;20514;-79
2021/03/29 03:41:54;;;;;;;2.10;1.70;;;11.40;2.40;;;;;;5063739;28;20495;-78
2021/03/29 03:44:21;;;;;;;3.17;1.90;;;11.40;2.40;;;;;;5060268;28;20476;-80
2021/03/29 03:46:52;;;;;;;2.90;2.47;;;11.30;2.40;;;;;;5066551;28;20450;-79
2021/03/29 03:49:22;;;;;;;5.50;1.90;;;11.30;2.00;;;;;;5058120;28;20466;-78
2021/03/29 03:51:51;;;;;;;2.10;1.43;;;11.30;1.60;;;;;;5057957;28;20564;-79
2021/03/29 03:54:19;;;;;;;3.07;2.30;;;11.30;1.60;;;;;;5060396;28;20983;-78
2021/03/29 03:56:47;;;;;;;2.00;1.63;;;11.30;1.90;;;;;;5065084;28;20451;-77
2021/03/29 03:59:15;;;;;;;5.13;2.20;;;11.20;1.30;;;;;;5066849;28;20442;-78
2021/03/29 04:01:55;;;;;;;2.60;1.80;;;11.30;2.80;;;;;;5057068;28;21134;-79
2021/03/29 04:04:22;;;;;;;4.27;2.37;;;11.30;1.50;;;;;;5064526;28;20456;-78
2021/03/29 04:06:49;;;;;;;5.07;2.37;;;11.20;2.50;;;;;;5067936;28;20471;-77
2021/03/29 04:09:17;;;;;;;4.50;2.00;;;11.10;2.10;;;;;;5062139;28;20474;-78
2021/03/29 04:11:50;;;;;;;3.67;1.90;;;11.00;1.60;;;;;;5058856;28;20469;-78
2021/03/29 04:14:17;;;;;;;5.70;1.83;;;11.00;2.40;;;;;;5067836;28;20547;-78
2021/03/29 04:16:44;;;;;;;3.70;2.10;;;10.90;1.30;;;;;;5065937;28;20447;-78
2021/03/29 04:19:12;;;;;;;1.97;1.40;;;10.90;1.50;;;;;;5059331;28;20449;-77
2021/03/29 04:21:39;;;;;;;3.43;1.60;;;11.00;2.10;;;;;;5055197;28;20478;-78
2021/03/29 04:24:08;;;;;;;2.70;2.00;;;11.00;2.40;;;;;;5065981;28;20472;-78
2021/03/29 04:26:35;;;;;;;3.43;1.70;;;11.00;12.50;;;;;;5062422;28;20534;-78
2021/03/29 04:29:02;;;;;;;5.80;1.80;;;10.90;2.20;;;;;;5070530;28;20508;-77
2021/03/29 04:31:29;;;;;;;2.47;1.50;;;10.90;1.70;;;;;;5053054;28;21510;-79
2021/03/29 04:33:57;;;;;;;2.37;1.27;;;10.90;1.50;;;;;;5061970;28;20454;-78
2021/03/29 04:36:25;;;;;;;3.30;1.77;;;11.00;2.10;;;;;;5059249;28;20522;-79
2021/03/29 04:38:52;;;;;;;3.00;1.60;;;11.00;2.50;;;;;;5065006;28;20464;-78
2021/03/29 04:41:19;;;;;;;3.43;1.60;;;11.00;2.60;;;;;;5062226;28;20482;-78
2021/03/29 04:43:46;;;;;;;2.17;1.50;;;11.00;2.70;;;;;;5065958;28;20464;-77
2021/03/29 04:46:13;;;;;;;2.80;1.80;;;10.90;2.80;;;;;;5061690;28;20482;-78
2021/03/29 04:48:40;;;;;;;4.80;2.20;;;10.90;2.50;;;;;;5065805;28;20450;-77
2021/03/29 04:51:08;;;;;;;2.43;1.90;;;10.80;2.20;;;;;;5051075;28;20487;-78
2021/03/29 04:53:36;;;;;;;2.87;1.90;;;10.80;1.90;;;;;;5050762;28;20466;-79
2021/03/29 04:56:03;;;;;;;6.43;1.60;;;10.80;2.00;;;;;;5055166;28;21079;-77
2021/03/29 04:58:30;;;;;;;6.30;1.83;;;10.70;1.60;;;;;;5055601;28;20453;-79
2021/03/29 05:00:58;;;;;;;3.08;1.90;;;10.70;2.70;;;;;;5059418;28;20454;-80
2021/03/29 05:03:25;;;;;;;3.00;1.63;;;10.80;3.30;;;;;;5064042;28;20210;-78
2021/03/29 05:05:53;;;;;;;4.10;2.03;;;10.80;3.40;;;;;;5058450;28;20438;-77
2021/03/29 05:08:20;;;;;;;2.47;1.80;;;10.70;3.00;;;;;;5051015;28;20962;-77
2021/03/29 05:10:48;;;;;;;2.00;1.80;;;10.80;5.30;;;;;;5051191;28;20478;-79
2021/03/29 05:13:15;;;;;;;2.80;1.80;;;10.80;2.80;;;;;;5060646;28;20496;-79
2021/03/29 05:15:42;;;;;;;1.70;1.60;;;10.90;2.50;;;;;;5057897;28;20461;-79
2021/03/29 05:18:10;;;;;;;1.57;1.40;;;10.90;3.70;;;;;;5056861;28;20466;-80
2021/03/29 05:20:37;;;;;;;3.10;1.73;;;10.80;4.00;;;;;;5067133;28;20483;-80
2021/03/29 05:23:04;;;;;;;2.37;2.17;;;10.90;4.10;;;;;;5058960;28;20480;-79
2021/03/29 05:25:31;;;;;;;3.53;1.60;;;10.90;4.60;;;;;;5053011;28;20478;-79
2021/03/29 05:27:59;;;;;;;2.53;1.60;;;10.90;3.40;;;;;;5062992;28;21095;-78
2021/03/29 05:30:27;;;;;;;2.93;2.20;;;11.00;4.00;;;;;;5051027;28;20615;-78
2021/03/29 05:32:54;;;;;;;4.00;1.70;;;11.00;4.20;;;;;;5053574;28;20461;-78
2021/03/29 05:35:21;;;;;;;2.00;1.90;;;11.00;5.60;;;;;;5068126;28;21057;-78
2021/03/29 05:37:49;;;;;;;2.57;2.13;;;11.00;5.70;;;;;;5051428;28;20470;-78
2021/03/29 05:40:18;;;;;;;3.60;2.10;;;11.00;4.80;;;;;;5060875;28;20492;-79
2021/03/29 05:42:46;;;;;;;2.10;1.60;;;11.10;5.70;;;;;;5058514;28;20445;-79
2021/03/29 05:45:14;;;;;;;6.77;1.90;;;11.10;4.30;;;;;;5059013;28;20484;-78
2021/03/29 05:47:42;;;;;;;2.40;1.77;;;11.20;6.40;;;;;;5053830;28;20458;-79
2021/03/29 05:50:12;;;;;;;2.70;2.10;;;11.20;6.80;;;;;;5062849;28;20983;-78
2021/03/29 05:52:40;;;;;;;2.40;1.50;;;11.20;7.50;;;;;;5056096;28;20536;-77
2021/03/29 05:55:14;;;;;;;1.97;1.80;;;11.20;8.90;;;;;;5057015;28;20459;-79
2021/03/29 05:57:54;;;;;;;2.23;1.90;;;11.20;10.30;;;;;;5049998;28;20520;-76
2021/03/29 06:00:50;;;;;;;2.10;1.90;;;11.20;9.80;;;;;;5050880;28;20480;-79
2021/03/29 06:03:29;;;;;;;7.00;2.27;;;11.20;10.20;;;;;;5018785;28;20462;-79
2021/03/29 06:05:58;;;;;;;3.00;1.90;;;11.20;10.00;;;;;;5053898;28;21032;-78
2021/03/29 06:08:26;;;;;;;3.13;1.60;;;11.20;11.00;;;;;;5048447;28;20458;-77
2021/03/29 06:10:54;;;;;;;2.93;2.17;;;11.20;9.20;;;;;;5065211;28;21057;-78
2021/03/29 06:13:24;;;;;;;5.03;2.23;;;11.20;10.80;;;;;;5055527;28;20453;-78
2021/03/29 06:16:07;;;;;;;4.37;2.20;;;11.30;11.30;;;;;;5062675;28;20445;-77
2021/03/29 06:18:35;;;;;;;2.90;2.37;;;11.30;10.50;;;;;;5048763;28;20460;-77
2021/03/29 06:21:07;;;;;;;3.60;2.67;;;11.30;10.80;;;;;;5058495;28;20470;-78
2021/03/29 06:23:36;;;;;;;2.83;2.13;;;11.30;12.10;;;;;;5057803;28;20454;-76
2021/03/29 06:26:25;;;;;;;7.00;3.03;;;11.30;12.60;;;;;;5061318;28;20489;-76
2021/03/29 06:28:52;;;;;;;3.00;2.80;;;11.50;13.40;;;;;;5055123;28;20451;-76
2021/03/29 06:31:31;;;;;;;8.83;2.40;;;11.60;15.00;;;;;;5051006;28;20466;-76
2021/03/29 06:34:00;;;;;;;2.07;1.80;;;11.70;14.50;;;;;;5056407;28;20462;-78
2021/03/29 06:36:34;;;;;;;3.80;1.90;;;11.80;14.70;;;;;;5050848;28;20448;-77
2021/03/29 06:39:17;;;;;;;4.40;1.73;;;11.90;12.70;;;;;;5050655;28;20450;-77
2021/03/29 06:41:54;;;;;;;4.20;1.80;;;12.00;15.40;;;;;;5055698;28;20474;-77
2021/03/29 06:44:26;;;;;;;6.53;1.77;;;12.10;13.70;;;;;;5066362;28;20447;-79
2021/03/29 06:47:10;;;;;;;2.63;1.40;;;12.10;14.30;;;;;;5063232;28;20490;-77
2021/03/29 06:49:40;;;;;;;3.33;2.90;;;12.20;14.00;;;;;;5051519;28;20529;-78
2021/03/29 06:52:21;;;;;;;4.63;1.87;;;12.10;14.30;;;;;;5052538;28;20456;-78
2021/03/29 06:54:49;;;;;;;3.67;1.90;;;12.10;16.10;;;;;;5060544;28;21005;-77
2021/03/29 06:57:27;;;;;;;4.27;2.10;;;12.20;15.10;;;;;;5058730;28;20476;-77
2021/03/29 06:59:55;;;;;;;5.22;2.38;;;12.30;14.20;;;;;;5062296;28;20477;-79
2021/03/29 07:02:39;;;;;;;3.30;2.03;;;12.30;14.40;;;;;;5052824;28;20228;-79
2021/03/29 07:05:09;;;;;;;4.40;2.53;;;12.30;14.10;;;;;;5059774;28;20488;-78
2021/03/29 07:07:38;;;;;;;3.60;2.20;;;12.40;14.40;;;;;;5061754;28;20458;-79
2021/03/29 07:10:07;;;;;;;4.17;2.07;;;12.50;14.80;;;;;;5057841;28;20483;-79
2021/03/29 07:12:38;;;;;;;2.53;1.83;;;12.50;14.50;;;;;;5056812;28;20974;-79
2021/03/29 07:15:08;;;;;;;3.20;2.13;;;12.60;15.30;;;;;;5054025;28;20531;-80
2021/03/29 07:17:38;;;;;;;4.63;1.90;;;12.60;14.10;;;;;;5058999;28;20443;-78
2021/03/29 07:20:08;;;;;;;3.60;2.20;;;12.60;14.40;;;;;;5058541;28;21282;-79
2021/03/29 07:22:37;;;;;;;4.93;2.23;;;12.70;16.30;;;;;;5063934;28;20887;-80
2021/03/29 07:25:08;;;;;;;2.40;1.67;;;12.70;16.70;;;;;;5063733;28;20570;-79
2021/03/29 07:27:43;;;;;;;5.97;2.00;;;12.90;16.90;;;;;;5061407;28;20436;-79
2021/03/29 07:30:14;;;;;;;5.40;2.27;;;13.00;17.90;;;;;;5070343;28;20487;-79
2021/03/29 07:32:53;;;;;;;4.87;2.33;;;13.10;22.60;;;;;;5068185;28;20521;-81
2021/03/29 07:35:21;;;;;;;4.60;2.10;;;13.20;17.60;;;;;;5064800;28;20470;-81
2021/03/29 07:37:55;;;;;;;4.23;2.43;;;13.20;18.30;;;;;;5062126;28;20459;-79
2021/03/29 07:40:42;;;;;;;3.80;1.90;;;13.30;17.40;;;;;;5052507;28;20470;-79
2021/03/29 07:43:12;;;;;;;2.50;1.83;;;13.50;19.20;;;;;;5065380;28;20449;-80
2021/03/29 07:45:42;;;;;;;2.00;1.80;;;13.60;19.00;;;;;;5065782;28;21020;-80
2021/03/29 07:48:10;;;;;;;5.03;2.00;;;13.70;19.90;;;;;;5059593;28;20463;-80
2021/03/29 07:50:49;;;;;;;4.50;1.80;;;13.90;19.80;;;;;;5067564;28;20505;-80
2021/03/29 07:53:19;;;;;;;4.50;1.90;;;14.00;21.10;;;;;;5067161;28;20466;-81
2021/03/29 07:55:51;;;;;;;1.87;1.77;;;14.20;21.70;;;;;;5066298;28;20801;-80
2021/03/29 07:58:19;;;;;;;3.67;2.10;;;14.40;22.90;;;;;;5066398;28;20445;-81
2021/03/29 08:00:55;;;;;;;3.30;2.07;;;14.50;23.70;;;;;;5054810;28;20476;-79
2021/03/29 08:03:59;;;;;;;5.80;3.07;;;14.70;24.60;;;;;;5059180;28;20447;-81
2021/03/29 08:06:49;;;;;;;4.17;2.10;;;14.80;24.50;;;;;;5059016;28;20472;-81
2021/03/29 08:09:20;;;;;;;4.30;2.17;;;14.90;25.00;;;;;;5055598;28;20473;-82
2021/03/29 08:12:06;;;;;;;2.27;2.07;;;15.00;38.40;;;;;;5072219;28;20512;-79
2021/03/29 08:14:37;;;;;;;2.53;1.80;;;15.20;26.90;;;;;;5060859;28;20464;-79
2021/03/29 08:17:45;;;;;;;2.03;1.73;;;15.20;26.40;;;;;;5053804;28;20511;-81
2021/03/29 08:20:22;;;;;;;2.20;1.83;;;15.40;27.50;;;;;;5059361;28;20488;-80
2021/03/29 08:23:27;;;;;;;3.97;2.07;;;15.60;29.80;;;;;;5059405;28;20549;-80
2021/03/29 08:26:22;;;;;;;2.00;1.50;;;15.80;31.00;;;;;;5056531;28;20448;-79
2021/03/29 08:29:41;;;;;;;2.70;1.87;;;15.90;32.40;;;;;;5057198;28;20218;-77
2021/03/29 08:32:28;;;;;;;4.40;2.00;;;16.00;30.80;;;;;;5050595;28;20450;-80
2021/03/29 08:35:00;;;;;;;3.67;1.63;;;16.00;32.30;;;;;;5053071;28;20208;-80
2021/03/29 08:37:35;;;;;;;4.33;1.80;;;16.10;33.30;;;;;;5057132;28;20458;-76
2021/03/29 08:40:07;;;;;;;1.83;1.50;;;16.30;34.80;;;;;;5062695;28;21110;-77
2021/03/29 08:42:36;;;;;;;1.90;1.53;;;16.40;35.80;;;;;;5055795;28;20470;-80
2021/03/29 08:45:07;;;;;;;2.60;1.47;;;16.50;37.00;;;;;;5057509;28;20472;-78
2021/03/29 08:47:37;;;;;;;1.67;1.53;;;16.50;36.10;;;;;;5054776;28;21201;-78
2021/03/29 08:50:09;;;;;;;2.80;1.60;;;16.60;36.70;;;;;;5046327;28;20479;-78
2021/03/29 08:52:42;;;;;;;2.93;1.57;;;16.70;36.10;;;;;;5062298;28;20451;-77
2021/03/29 08:55:11;;;;;;;2.03;1.83;;;16.70;36.30;;;;;;5063423;28;20448;-77
2021/03/29 08:57:38;;;;;;;4.87;1.60;;;16.70;35.40;;;;;;5054110;28;20456;-78
2021/03/29 09:00:11;;;;;;;1.67;1.50;;;16.80;37.90;;;;;;5055700;28;20500;-77
2021/03/29 09:02:39;;;;;;;2.50;1.27;;;16.90;37.10;;;;;;5060009;28;20465;-77
2021/03/29 09:05:09;;;;;;;2.57;1.03;;;17.00;38.60;;;;;;5057408;28;20464;-78
2021/03/29 09:07:38;;;;;;;4.07;1.50;;;17.10;36.50;;;;;;5059780;28;21003;-78
2021/03/29 09:10:19;;;;;;;1.50;1.20;;;17.10;37.00;;;;;;5062182;28;21158;-78
2021/03/29 09:12:52;;;;;;;1.93;1.10;;;17.20;38.20;;;;;;5059674;28;20512;-79
2021/03/29 09:15:19;;;;;;;2.60;1.07;;;17.30;39.10;;;;;;5058169;28;20449;-79
2021/03/29 09:17:55;;;;;;;3.63;1.47;;;17.40;40.60;;;;;;5058830;28;20532;-79
2021/03/29 09:20:24;;;;;;;1.90;1.23;;;17.40;40.20;;;;;;5059743;28;20476;-73
2021/03/29 09:22:51;;;;;;;3.00;1.00;;;17.50;39.40;;;;;;5062031;28;20507;-76
2021/03/29 09:25:30;;;;;;;3.83;1.20;;;17.60;41.20;;;;;;5059193;28;20875;-79
2021/03/29 09:28:15;;;;;;;2.80;1.40;;;17.50;42.00;;;;;;5060983;28;20464;-74
2021/03/29 09:30:43;;;;;;;2.57;1.30;;;17.60;41.50;;;;;;5065995;28;20485;-77
2021/03/29 09:33:10;;;;;;;2.30;1.00;;;17.40;39.80;;;;;;5058404;28;20449;-75
2021/03/29 09:35:37;;;;;;;3.70;1.30;;;17.40;41.00;;;;;;5062031;28;20483;-78
2021/03/29 09:38:05;;;;;;;3.13;1.30;;;17.50;42.60;;;;;;5052437;28;20506;-75
2021/03/29 09:40:37;;;;;;;1.90;1.33;;;17.60;42.90;;;;;;5068142;28;20840;-80
2021/03/29 09:43:05;;;;;;;2.47;1.27;;;17.80;43.50;;;;;;5069451;28;20481;-81
2021/03/29 09:45:34;;;;;;;4.33;1.40;;;17.90;45.00;;;;;;5062997;28;20876;-80
2021/03/29 09:48:05;;;;;;;2.10;1.17;;;18.00;45.00;;;;;;5056099;28;20781;-80
2021/03/29 09:50:35;;;;;;;6.43;1.20;;;18.10;46.20;;;;;;5057626;28;21095;-80
2021/03/29 09:53:11;;;;;;;2.17;1.37;;;18.20;44.60;;;;;;5057430;28;20450;-80
2021/03/29 09:55:44;;;;;;;2.07;1.13;;;18.20;42.00;;;;;;5056067;28;20449;-81
2021/03/29 09:58:22;;;;;;;2.80;1.20;;;18.20;41.40;;;;;;5060465;28;20442;-80
2021/03/29 10:00:50;;;;;;;2.50;1.00;;;18.20;55.90;;;;;;5060146;28;20565;-80
2021/03/29 10:03:18;;;;;;;6.27;1.20;;;18.20;42.40;;;;;;5061468;28;20446;-81
2021/03/29 10:05:48;;;;;;;3.60;1.20;;;18.30;41.80;;;;;;5053050;28;21026;-81
2021/03/29 10:08:28;;;;;;;1.93;1.10;;;18.40;43.10;;;;;;5058557;28;20481;-81
2021/03/29 10:11:04;;;;;;;1.87;0.97;;;18.40;43.50;;;;;;5065285;28;20754;-80
2021/03/29 10:13:37;;;;;;;3.30;1.20;;;18.30;41.10;;;;;;5059791;28;20469;-82
2021/03/29 10:16:22;;;;;;;3.87;1.20;;;18.30;40.10;;;;;;5064986;28;20438;-83
2021/03/29 10:19:10;;;;;;;2.17;1.23;;;18.40;42.30;;;;;;5059168;28;21267;-80
2021/03/29 10:22:03;;;;;;;2.03;1.03;;;18.50;42.10;;;;;;5068433;28;20485;-82
2021/03/29 10:24:30;;;;;;;3.50;1.20;;;18.60;41.60;;;;;;5052767;28;20435;-81
2021/03/29 10:27:00;;;;;;;2.40;1.10;;;18.70;44.50;;;;;;5063238;28;20477;-81
2021/03/29 10:29:38;;;;;;;4.33;1.33;;;18.80;46.50;;;;;;5056018;28;20469;-79
2021/03/29 10:32:07;;;;;;;2.47;1.03;;;18.90;47.20;;;;;;5063445;28;20453;-80
2021/03/29 10:34:38;;;;;;;2.27;1.27;;;19.00;47.50;;;;;;5058719;28;21024;-82
2021/03/29 10:37:06;;;;;;;1.97;1.20;;;19.10;48.50;;;;;;5049881;28;20439;-79
2021/03/29 10:39:34;;;;;;;4.20;1.23;;;19.00;45.50;;;;;;5057970;28;20462;-79
2021/03/29 10:42:02;;;;;;;2.00;1.10;;;19.00;45.00;;;;;;5064618;28;20465;-81
2021/03/29 10:44:29;;;;;;;1.07;0.97;;;19.10;47.10;;;;;;5060091;28;20467;-79
2021/03/29 10:46:56;;;;;;;1.50;1.30;;;19.20;47.90;;;;;;5058546;28;20563;-78
2021/03/29 10:49:23;;;;;;;4.73;1.10;;;19.20;47.50;;;;;;5056889;28;20466;-80
2021/03/29 10:51:50;;;;;;;1.60;1.00;;;19.30;50.10;;;;;;5056242;28;20836;-78
2021/03/29 10:54:18;;;;;;;1.77;1.10;;;19.40;50.70;;;;;;5058755;28;20447;-81
2021/03/29 10:56:45;;;;;;;2.50;1.20;;;19.30;47.20;;;;;;5063808;28;20956;-79
2021/03/29 10:59:13;;;;;;;2.60;1.33;;;19.30;48.70;;;;;;5061730;28;20458;-79
2021/03/29 11:01:40;;;;;;;2.47;1.10;;;19.50;50.00;;;;;;5059477;28;20466;-81
2021/03/29 11:04:08;;;;;;;2.77;1.43;;;19.60;51.70;;;;;;5055042;28;20870;-81
2021/03/29 11:06:35;;;;;;;0.90;0.90;;;19.70;51.00;;;;;;5064955;28;21034;-82
2021/03/29 11:09:03;;;;;;;1.53;1.10;;;19.70;51.10;;;;;;5055005;28;20470;-82
2021/03/29 11:11:30;;;;;;;2.37;1.30;;;19.50;47.30;;;;;;5058561;28;20462;-81
2021/03/29 11:13:57;;;;;;;4.27;1.20;;;19.60;49.90;;;;;;5064345;28;20550;-81
2021/03/29 11:16:26;;;;;;;5.27;1.33;;;19.60;51.40;;;;;;5060177;28;20444;-81
2021/03/29 11:18:53;;;;;;;3.43;1.23;;;19.70;52.40;;;;;;5060047;28;20459;-82
2021/03/29 11:21:20;;;;;;;2.37;1.40;;;19.90;52.90;;;;;;5067112;28;20490;-82
2021/03/29 11:23:48;;;;;;;3.07;1.30;;;20.00;54.80;;;;;;5068365;28;20450;-85
2021/03/29 11:26:15;;;;;;;3.80;1.30;;;20.10;55.10;;;;;;5061981;28;20471;-84
2021/03/29 11:28:42;;;;;;;4.63;1.00;;;20.10;54.90;;;;;;5063233;28;20463;-80
2021/03/29 11:31:09;;;;;;;3.30;1.63;;;20.10;54.50;;;;;;5065707;28;20483;-80
2021/03/29 11:33:37;;;;;;;1.80;1.40;;;20.10;53.90;;;;;;5064233;28;20463;-82
2021/03/29 11:36:05;;;;;;;2.60;1.17;;;19.90;51.40;;;;;;5056959;28;20517;-82
2021/03/29 11:38:32;;;;;;;4.90;1.30;;;20.00;51.40;;;;;;5057684;28;20457;-84
2021/03/29 11:40:59;;;;;;;5.90;1.00;;;20.00;54.80;;;;;;5066784;28;20490;-82
2021/03/29 11:43:26;;;;;;;4.40;1.33;;;20.10;55.60;;;;;;5064287;28;20470;-82
2021/03/29 11:45:54;;;;;;;2.60;1.30;;;20.20;56.70;;;;;;5063229;28;21104;-81
2021/03/29 11:48:34;;;;;;;3.33;1.40;;;20.10;52.90;;;;;;5057310;28;21108;-83
2021/03/29 11:51:03;;;;;;;3.37;1.30;;;20.00;50.50;;;;;;5054205;28;20510;-80
2021/03/29 11:53:30;;;;;;;2.73;1.17;;;19.90;51.90;;;;;;5063478;28;20443;-80
2021/03/29 11:55:58;;;;;;;1.37;1.10;;;20.00;52.20;;;;;;5052282;28;20455;-79
2021/03/29 11:58:25;;;;;;;3.43;1.60;;;19.90;50.20;;;;;;5059446;28;20456;-78
2021/03/29 12:00:55;;;;;;;3.60;1.40;;;20.00;53.30;;;;;;5060226;28;20516;-80
2021/03/29 12:03:29;;;;;;;2.67;1.50;;;20.10;55.40;;;;;;5060019;28;20451;-78
2021/03/29 12:05:59;;;;;;;2.70;1.70;;;20.20;57.00;;;;;;5051084;28;20475;-80
2021/03/29 12:08:33;;;;;;;2.77;1.23;;;20.20;55.30;;;;;;5065479;28;20449;-79
2021/03/29 12:13:46;;;;;;;4.20;1.20;;;20.20;53.50;;;;;;5063274;28;20442;-79
2021/03/29 12:16:15;;;;;;;1.47;1.20;;;20.30;57.20;;;;;;5053475;28;20522;-80
2021/03/29 12:18:45;;;;;;;1.80;1.30;;;20.40;57.20;;;;;;5060598;28;20452;-78
2021/03/29 12:21:20;;;;;;;1.93;1.30;;;20.50;58.50;;;;;;5061156;28;20488;-80
2021/03/29 12:23:50;;;;;;;2.63;1.37;;;20.60;58.30;;;;;;5066068;28;21022;-80
2021/03/29 12:26:22;;;;;;;1.83;1.40;;;20.50;58.60;;;;;;5063022;28;20467;-81
2021/03/29 12:28:51;;;;;;;3.70;1.23;;;20.50;56.90;;;;;;5060433;28;20463;-80
2021/03/29 12:31:20;;;;;;;2.83;1.15;;;20.30;53.70;;;;;;5061251;28;20454;-80
2021/03/29 12:33:48;;;;;;;2.30;1.30;;;20.40;54.60;;;;;;5062638;28;20193;-80
2021/03/29 12:36:16;;;;;;;5.00;2.10;;;20.40;54.90;;;;;;5053763;28;20471;-81
2021/03/29 12:38:53;;;;;;;1.77;1.30;;;20.40;54.30;;;;;;5053257;28;20460;-80
2021/03/29 12:41:21;;;;;;;2.80;1.25;;;20.40;55.30;;;;;;5055251;28;20440;-80
2021/03/29 12:43:58;;;;;;;4.93;1.30;;;20.60;60.20;;;;;;5063092;28;20203;-80
2021/03/29 12:46:25;;;;;;;3.43;1.50;;;20.70;59.10;;;;;;5063220;28;20478;-80
2021/03/29 12:48:52;;;;;;;2.80;1.30;;;20.70;64.40;;;;;;5061631;28;20462;-80
2021/03/29 12:51:20;;;;;;;3.20;1.40;;;20.70;65.20;;;;;;5059949;28;20474;-81
2021/03/29 12:53:49;;;;;;;4.23;1.57;;;20.90;63.60;;;;;;5061899;28;20469;-79
2021/03/29 12:56:17;;;;;;;7.00;1.57;;;20.90;65.10;;;;;;5057904;28;20457;-79
2021/03/29 12:58:45;;;;;;;1.20;1.10;;;21.00;64.50;;;;;;5059832;28;20968;-80
2021/03/29 13:01:13;;;;;;;2.87;1.40;;;21.10;67.40;;;;;;5056274;28;20475;-81
2021/03/29 13:03:42;;;;;;;3.00;1.30;;;21.00;72.30;;;;;;5062405;28;20790;-81
2021/03/29 13:06:16;;;;;;;3.83;1.50;;;21.00;63.30;;;;;;5059658;28;20307;-82
2021/03/29 13:08:44;;;;;;;2.57;1.30;;;21.00;62.50;;;;;;5057121;28;20482;-82
2021/03/29 13:11:26;;;;;;;2.03;1.10;;;21.10;63.40;;;;;;5053181;28;20479;-82